createdAt,value
2022-09-22T00:00:29.192Z,8.18
2022-09-22T00:02:56.676Z,7.65
2022-09-22T00:05:24.748Z,7.38
2022-09-22T00:07:53.198Z,6.78
2022-09-22T00:10:22.310Z,5.60
2022-09-22T00:12:49.937Z,6.00
2022-09-22T00:15:17.517Z,6.97
2022-09-22T00:17:45.512Z,7.50
2022-09-22T00:20:13.868Z,8.52
2022-09-22T00:22:41.243Z,7.03
2022-09-22T00:25:09.341Z,8.70
2022-09-22T00:27:38.063Z,7.57
2022-09-22T00:30:06.959Z,9.43
2022-09-22T00:32:34.511Z,7.55
2022-09-22T00:35:01.883Z,8.65
2022-09-22T00:37:29.234Z,5.85
2022-09-22T00:39:56.957Z,6.72
2022-09-22T00:42:24.694Z,6.72
2022-09-22T00:44:53.376Z,9.60
2022-09-22T00:47:35.533Z,8.30
2022-09-22T00:50:08.710Z,6.78
2022-09-22T00:52:37.917Z,7.25
2022-09-22T00:55:07.778Z,13.93
2022-09-22T00:57:36.487Z,8.40
2022-09-22T01:00:06.798Z,7.03
2022-09-22T01:02:34.160Z,7.57
2022-09-22T01:05:01.570Z,8.02
2022-09-22T01:07:29.991Z,11.18
2022-09-22T01:09:57.971Z,8.88
2022-09-22T01:12:26.523Z,8.60
2022-09-22T01:15:10.278Z,9.70
2022-09-22T01:17:42.007Z,7.47
2022-09-22T01:20:25.676Z,8.35
2022-09-22T01:23:11.580Z,9.75
2022-09-22T01:25:50.872Z,9.07
2022-09-22T01:28:26.091Z,8.35
2022-09-22T01:30:58.622Z,7.90
2022-09-22T01:33:34.083Z,7.40
2022-09-22T01:36:09.584Z,6.55
2022-09-22T01:38:37.918Z,5.57
2022-09-22T01:41:08.362Z,7.20
2022-09-22T01:43:41.637Z,7.55
2022-09-22T01:46:12.130Z,7.45
2022-09-22T01:48:40.971Z,7.30
2022-09-22T01:51:11.011Z,5.47
2022-09-22T01:53:42.147Z,5.97
2022-09-22T01:56:10.681Z,7.53
2022-09-22T01:58:40.682Z,8.02
2022-09-22T02:01:13.771Z,7.88
2022-09-22T02:03:45.556Z,9.93
2022-09-22T02:06:14.595Z,6.82
2022-09-22T02:08:44.021Z,6.20
2022-09-22T02:11:13.779Z,9.07
2022-09-22T02:13:41.329Z,7.63
2022-09-22T02:16:09.260Z,7.13
2022-09-22T02:18:38.339Z,7.93
2022-09-22T02:21:07.141Z,7.75
2022-09-22T02:23:35.259Z,7.20
2022-09-22T02:26:03.073Z,6.88
2022-09-22T02:28:31.325Z,6.70
2022-09-22T02:31:19.105Z,7.65
2022-09-22T02:33:46.704Z,7.20
2022-09-22T02:36:21.586Z,6.30
2022-09-22T02:38:52.690Z,6.28
2022-09-22T02:43:50.480Z,7.75
2022-09-22T02:46:22.111Z,5.40
2022-09-22T02:48:51.640Z,5.93
2022-09-22T02:51:20.343Z,7.85
2022-09-22T02:53:47.748Z,9.57
2022-09-22T02:56:15.209Z,8.18
2022-09-22T02:58:42.571Z,7.15
2022-09-22T03:01:10.025Z,6.78
2022-09-22T03:03:37.428Z,6.55
2022-09-22T03:06:04.919Z,5.75
2022-09-22T03:08:33.675Z,6.80
2022-09-22T03:11:01.113Z,5.18
2022-09-22T03:13:28.536Z,6.82
2022-09-22T03:15:56.184Z,5.68
2022-09-22T03:18:23.759Z,8.80
2022-09-22T03:20:51.134Z,6.57
2022-09-22T03:23:18.464Z,5.15
2022-09-22T03:25:47.317Z,5.65
2022-09-22T03:28:14.693Z,7.18
2022-09-22T03:30:42.087Z,6.60
2022-09-22T03:33:09.498Z,6.25
2022-09-22T03:35:36.893Z,6.72
2022-09-22T03:38:04.443Z,6.43
2022-09-22T03:40:31.908Z,5.18
2022-09-22T03:43:01.554Z,6.80
2022-09-22T03:45:28.936Z,5.88
2022-09-22T03:47:56.276Z,8.27
2022-09-22T03:50:23.637Z,7.32
2022-09-22T03:52:51.010Z,7.70
2022-09-22T03:55:18.414Z,5.22
2022-09-22T03:57:45.894Z,7.40
2022-09-22T04:00:15.560Z,5.70
2022-09-22T04:02:43.011Z,6.05
2022-09-22T04:05:10.713Z,6.63
2022-09-22T04:07:38.398Z,7.40
2022-09-22T04:10:06.086Z,6.57
2022-09-22T04:12:33.559Z,7.07
2022-09-22T04:15:00.943Z,5.35
2022-09-22T04:17:29.658Z,6.40
2022-09-22T04:19:57.231Z,6.05
2022-09-22T04:22:24.607Z,6.40
2022-09-22T04:24:51.994Z,8.25
2022-09-22T04:27:20.547Z,6.65
2022-09-22T04:29:48.545Z,6.25
2022-09-22T04:32:16.105Z,6.70
2022-09-22T04:34:45.010Z,6.40
2022-09-22T04:37:12.422Z,6.25
2022-09-22T04:39:39.728Z,7.35
2022-09-22T04:42:08.854Z,9.35
2022-09-22T04:44:36.205Z,6.30
2022-09-22T04:47:03.831Z,6.63
2022-09-22T04:49:31.250Z,7.80
2022-09-22T04:52:00.017Z,8.40
2022-09-22T04:54:27.369Z,7.05
2022-09-22T04:56:54.826Z,9.32
2022-09-22T04:59:22.194Z,5.32
2022-09-22T05:01:49.587Z,6.53
2022-09-22T05:04:17.995Z,6.40
2022-09-22T05:06:45.349Z,7.15
2022-09-22T05:09:14.351Z,6.85
2022-09-22T05:11:41.680Z,8.43
2022-09-22T05:14:09.164Z,7.45
2022-09-22T05:16:36.895Z,5.82
2022-09-22T05:19:04.331Z,11.52
2022-09-22T05:21:31.853Z,8.02
2022-09-22T05:23:59.406Z,12.02
2022-09-22T05:26:28.127Z,8.38
2022-09-22T05:28:55.502Z,10.13
2022-09-22T05:31:22.886Z,8.52
2022-09-22T05:33:51.072Z,8.63
2022-09-22T05:36:18.478Z,10.07
2022-09-22T05:38:45.859Z,9.30
2022-09-22T05:41:13.239Z,9.20
2022-09-22T05:43:41.953Z,8.52
2022-09-22T05:46:09.387Z,11.00
2022-09-22T05:48:36.836Z,10.93
2022-09-22T05:51:04.257Z,11.85
2022-09-22T05:53:31.882Z,9.27
2022-09-22T05:56:00.059Z,13.05
2022-09-22T05:58:27.482Z,8.35
2022-09-22T06:00:58.547Z,7.47
2022-09-22T06:03:26.271Z,8.43
2022-09-22T06:05:53.779Z,12.15
2022-09-22T06:08:21.209Z,13.05
2022-09-22T06:10:51.367Z,8.70
2022-09-22T06:13:18.789Z,11.52
2022-09-22T06:15:47.986Z,13.98
2022-09-22T06:18:23.480Z,14.45
2022-09-22T06:20:51.732Z,12.40
2022-09-22T06:23:19.203Z,17.55
2022-09-22T06:25:46.557Z,16.60
2022-09-22T06:28:15.057Z,9.75
2022-09-22T06:30:42.902Z,9.27
2022-09-22T06:33:11.094Z,8.02
2022-09-22T06:35:42.751Z,7.70
2022-09-22T06:38:10.996Z,7.82
2022-09-22T06:40:38.439Z,7.75
2022-09-22T06:43:12.764Z,6.90
2022-09-22T06:45:40.457Z,7.30
2022-09-22T06:48:10.432Z,5.85
2022-09-22T06:50:38.785Z,4.80
2022-09-22T06:53:08.241Z,5.03
2022-09-22T06:55:35.891Z,6.38
2022-09-22T06:58:03.686Z,7.10
2022-09-22T07:00:32.580Z,5.47
2022-09-22T07:03:05.054Z,7.03
2022-09-22T07:05:32.463Z,5.10
2022-09-22T07:07:59.853Z,5.90
2022-09-22T07:10:28.555Z,5.50
2022-09-22T07:12:56.415Z,4.93
2022-09-22T07:15:23.812Z,6.35
2022-09-22T07:17:52.350Z,4.95
2022-09-22T07:20:20.347Z,5.93
2022-09-22T07:22:47.730Z,5.18
2022-09-22T07:25:16.350Z,4.32
2022-09-22T07:27:45.059Z,5.85
2022-09-22T07:30:13.972Z,6.57
2022-09-22T07:32:41.667Z,5.30
2022-09-22T07:35:09.401Z,4.88
2022-09-22T07:37:40.747Z,4.60
2022-09-22T07:40:08.596Z,4.68
2022-09-22T07:42:36.031Z,6.43
2022-09-22T07:45:13.645Z,4.88
2022-09-22T07:50:26.303Z,6.45
2022-09-22T07:52:54.050Z,5.55
2022-09-22T07:55:24.096Z,4.82
2022-09-22T07:57:55.638Z,4.53
2022-09-22T08:00:24.591Z,3.30
2022-09-22T08:02:55.207Z,4.50
2022-09-22T08:05:22.956Z,4.50
2022-09-22T08:07:50.416Z,3.45
2022-09-22T08:10:18.390Z,3.50
2022-09-22T08:12:45.948Z,3.47
2022-09-22T08:15:13.564Z,3.70
2022-09-22T08:17:43.896Z,3.13
2022-09-22T08:20:12.692Z,3.35
2022-09-22T08:22:40.972Z,3.50
2022-09-22T08:25:12.296Z,2.95
2022-09-22T08:27:41.323Z,4.28
2022-09-22T08:30:11.904Z,3.80
2022-09-22T08:32:39.510Z,2.63
2022-09-22T08:35:08.936Z,2.53
2022-09-22T08:37:37.876Z,3.78
2022-09-22T08:40:06.163Z,2.00
2022-09-22T08:42:34.025Z,2.90
2022-09-22T08:45:04.718Z,1.75
2022-09-22T08:47:51.665Z,2.22
2022-09-22T08:50:45.211Z,1.50
2022-09-22T08:53:14.726Z,1.98
2022-09-22T08:55:43.985Z,2.40
2022-09-22T08:58:18.640Z,2.60
2022-09-22T09:00:47.698Z,3.58
2022-09-22T09:03:24.802Z,3.40
2022-09-22T09:06:04.372Z,3.00
2022-09-22T09:08:52.839Z,2.97
2022-09-22T09:11:26.385Z,3.58
2022-09-22T09:14:03.377Z,7.00
2022-09-22T09:16:38.120Z,3.75
2022-09-22T09:19:07.545Z,1.90
2022-09-22T09:21:38.504Z,2.58
2022-09-22T09:29:25.629Z,1.88
2022-09-22T09:31:54.338Z,1.73
2022-09-22T09:34:23.952Z,3.05
2022-09-22T09:36:55.218Z,6.25
2022-09-22T09:39:32.760Z,3.33
2022-09-22T09:42:01.325Z,2.83
2022-09-22T09:44:30.231Z,1.63
2022-09-22T09:47:00.751Z,2.38
2022-09-22T09:49:28.112Z,3.15
2022-09-22T09:51:58.788Z,2.28
2022-09-22T09:57:05.222Z,2.67
2022-09-22T09:59:50.603Z,2.30
2022-09-22T10:02:21.148Z,2.45
2022-09-22T10:04:52.901Z,1.67
2022-09-22T10:07:22.544Z,2.10
2022-09-22T10:09:50.628Z,2.38
2022-09-22T10:12:35.647Z,3.47
2022-09-22T10:15:03.102Z,1.85
2022-09-22T10:17:31.380Z,2.15
2022-09-22T10:20:17.035Z,2.17
2022-09-22T10:22:46.202Z,2.30
2022-09-22T10:25:21.616Z,3.28
2022-09-22T10:27:59.703Z,2.08
2022-09-22T10:30:27.493Z,2.40
2022-09-22T10:33:06.050Z,2.10
2022-09-22T10:35:34.544Z,2.40
2022-09-22T10:38:07.936Z,2.70
2022-09-22T10:40:37.007Z,2.78
2022-09-22T10:43:04.946Z,2.28
2022-09-22T10:45:38.331Z,4.97
2022-09-22T10:48:08.498Z,2.45
2022-09-22T10:50:48.093Z,2.47
2022-09-22T10:53:31.099Z,1.65
2022-09-22T10:56:06.397Z,3.47
2022-09-22T10:58:44.675Z,2.58
2022-09-22T11:01:21.853Z,3.05
2022-09-22T11:04:00.105Z,2.60
2022-09-22T11:06:54.262Z,1.40
2022-09-22T11:09:43.596Z,2.22
2022-09-22T11:12:17.413Z,1.92
2022-09-22T11:14:52.230Z,4.00
2022-09-22T11:17:25.034Z,1.33
2022-09-22T11:19:59.106Z,1.08
2022-09-22T11:22:37.211Z,2.53
2022-09-22T11:25:10.667Z,4.00
2022-09-22T11:27:45.570Z,4.97
2022-09-22T11:30:20.350Z,1.38
2022-09-22T11:32:55.057Z,1.25
2022-09-22T11:35:28.844Z,0.93
2022-09-22T11:38:04.393Z,1.63
2022-09-22T11:40:36.765Z,1.75
2022-09-22T11:43:22.151Z,3.67
2022-09-22T11:45:51.580Z,1.75
2022-09-22T11:48:25.007Z,4.30
2022-09-22T11:50:57.279Z,2.33
2022-09-22T11:53:31.461Z,3.10
2022-09-22T11:56:06.847Z,0.77
2022-09-22T11:58:39.940Z,1.58
2022-09-22T12:01:13.134Z,1.60
2022-09-22T12:03:44.260Z,1.00
2022-09-22T12:06:13.573Z,1.02
2022-09-22T12:08:43.274Z,1.67
2022-09-22T12:11:13.523Z,3.03
2022-09-22T12:16:13.161Z,2.70
2022-09-22T12:18:44.429Z,1.17
2022-09-22T12:21:20.999Z,1.63
2022-09-22T12:23:51.374Z,1.95
2022-09-22T12:26:27.239Z,2.20
2022-09-22T12:28:55.014Z,1.58
2022-09-22T12:31:32.724Z,2.03
2022-09-22T12:34:00.127Z,1.73
2022-09-22T12:36:31.670Z,2.30
2022-09-22T12:39:18.027Z,1.10
2022-09-22T12:41:47.976Z,1.83
2022-09-22T12:44:17.702Z,1.15
2022-09-22T12:46:46.606Z,2.00
2022-09-22T12:49:16.493Z,1.40
2022-09-22T12:51:43.845Z,1.92
2022-09-22T12:54:29.981Z,2.25
2022-09-22T12:56:58.858Z,4.00
2022-09-22T12:59:44.854Z,2.63
2022-09-22T13:02:27.791Z,3.40
2022-09-22T13:07:35.958Z,1.45
2022-09-22T13:10:22.080Z,2.70
2022-09-22T13:13:05.813Z,1.70
2022-09-22T13:15:53.339Z,1.52
2022-09-22T13:18:32.343Z,1.73
2022-09-22T13:21:00.021Z,1.52
2022-09-22T13:23:27.783Z,1.75
2022-09-22T13:26:05.327Z,1.65
2022-09-22T13:28:32.683Z,1.90
2022-09-22T13:31:03.581Z,0.82
2022-09-22T13:33:35.799Z,1.40
2022-09-22T13:38:30.787Z,2.40
2022-09-22T13:40:58.811Z,1.02
2022-09-22T13:43:29.100Z,2.17
2022-09-22T13:45:58.295Z,1.48
2022-09-22T13:48:26.927Z,1.35
2022-09-22T13:50:56.962Z,1.73
2022-09-22T13:53:24.559Z,1.77
2022-09-22T13:55:53.354Z,1.58
2022-09-22T13:58:23.937Z,1.27
2022-09-22T14:01:12.528Z,1.77
2022-09-22T14:03:40.262Z,1.02
2022-09-22T14:06:11.189Z,1.27
2022-09-22T14:08:38.703Z,1.42
2022-09-22T14:11:13.997Z,1.88
2022-09-22T14:13:42.561Z,2.85
2022-09-22T14:16:11.942Z,2.40
2022-09-22T14:21:09.148Z,1.70
2022-09-22T14:23:42.835Z,1.48
2022-09-22T14:26:19.108Z,2.65
2022-09-22T14:28:46.710Z,1.92
2022-09-22T14:31:15.091Z,2.15
2022-09-22T14:33:44.859Z,2.03
2022-09-22T14:36:15.026Z,0.90
2022-09-22T14:38:48.849Z,1.63
2022-09-22T14:41:24.368Z,1.20
2022-09-22T14:43:52.951Z,2.35
2022-09-22T14:46:31.073Z,2.08
2022-09-22T14:48:58.447Z,4.35
2022-09-22T14:51:27.779Z,1.85
2022-09-22T14:54:05.385Z,1.38
2022-09-22T14:56:34.245Z,2.65
2022-09-22T14:59:23.274Z,1.38
2022-09-22T15:02:08.322Z,1.70
2022-09-22T15:04:39.745Z,1.85
2022-09-22T15:07:08.838Z,2.05
2022-09-22T15:09:39.241Z,1.83
2022-09-22T15:12:07.113Z,1.60
2022-09-22T15:14:41.955Z,0.88
2022-09-22T15:17:45.674Z,1.60
2022-09-22T15:20:14.093Z,1.10
2022-09-22T15:22:41.447Z,1.27
2022-09-22T15:25:14.035Z,2.03
2022-09-22T15:27:41.473Z,3.30
2022-09-22T15:30:13.024Z,1.45
2022-09-22T15:32:44.691Z,1.63
2022-09-22T15:35:13.239Z,1.20
2022-09-22T15:37:42.127Z,2.08
2022-09-22T15:40:17.596Z,1.55
2022-09-22T15:43:08.663Z,1.55
2022-09-22T15:45:33.261Z,1.55
2022-09-22T15:48:00.636Z,1.70
2022-09-22T15:50:29.197Z,2.58
2022-09-22T15:52:56.578Z,1.45
2022-09-22T15:55:25.898Z,1.45
2022-09-22T16:00:23.095Z,1.27
2022-09-22T16:02:50.485Z,2.85
2022-09-22T16:05:18.544Z,2.30
2022-09-22T16:07:49.107Z,2.35
2022-09-22T16:10:17.627Z,1.70
2022-09-22T16:12:48.014Z,2.50
2022-09-22T16:15:15.450Z,1.20
2022-09-22T16:17:43.375Z,1.70
2022-09-22T16:20:14.246Z,1.42
2022-09-22T16:22:41.959Z,2.10
2022-09-22T16:25:11.355Z,2.20
2022-09-22T16:27:39.104Z,2.30
2022-09-22T16:30:08.759Z,2.75
2022-09-22T16:35:03.815Z,4.05
2022-09-22T16:37:31.250Z,3.20
2022-09-22T16:39:58.637Z,1.67
2022-09-22T16:42:25.950Z,2.47
2022-09-22T16:44:53.293Z,1.65
2022-09-22T16:47:22.933Z,1.80
2022-09-22T16:49:51.243Z,2.22
2022-09-22T16:52:19.985Z,2.05
2022-09-22T16:54:47.451Z,2.97
2022-09-22T16:57:14.982Z,2.08
2022-09-22T16:59:42.368Z,2.92
2022-09-22T17:02:10.920Z,1.38
2022-09-22T17:04:39.765Z,2.88
2022-09-22T17:07:07.161Z,5.32
2022-09-22T17:09:34.569Z,2.92
2022-09-22T17:12:02.294Z,3.85
2022-09-22T17:14:32.433Z,3.67
2022-09-22T17:17:06.313Z,2.45
2022-09-22T17:19:34.076Z,2.83
2022-09-22T17:22:02.858Z,3.70
2022-09-22T17:24:30.414Z,2.67
2022-09-22T17:26:58.564Z,3.60
2022-09-22T17:29:26.752Z,3.05
2022-09-22T17:31:56.433Z,2.65
2022-09-22T17:34:24.030Z,2.10
2022-09-22T17:36:52.395Z,3.88
2022-09-22T17:39:21.496Z,2.40
2022-09-22T17:41:49.923Z,4.43
2022-09-22T17:44:20.834Z,4.43
2022-09-22T17:47:06.650Z,3.95
2022-09-22T17:49:51.363Z,4.10
2022-09-22T17:52:36.599Z,6.45
2022-09-22T17:55:09.175Z,4.38
2022-09-22T17:57:37.331Z,5.75
2022-09-22T18:00:05.120Z,9.30
2022-09-22T18:02:36.541Z,10.07
2022-09-22T18:05:04.451Z,9.63
2022-09-22T18:07:32.985Z,11.25
2022-09-22T18:10:00.409Z,7.88
2022-09-22T18:12:29.451Z,8.43
2022-09-22T18:15:01.275Z,6.53
2022-09-22T18:17:30.005Z,9.60
2022-09-22T18:19:58.132Z,7.68
2022-09-22T18:22:26.651Z,6.70
2022-09-22T18:24:55.466Z,5.82
2022-09-22T18:27:23.460Z,11.05
2022-09-22T18:29:53.171Z,7.50
2022-09-22T18:32:21.117Z,8.85
2022-09-22T18:34:51.175Z,8.25
2022-09-22T18:37:18.646Z,7.53
2022-09-22T18:39:46.007Z,5.82
2022-09-22T18:42:13.823Z,10.43
2022-09-22T18:44:42.120Z,8.05
2022-09-22T18:47:14.742Z,8.98
2022-09-22T18:49:43.033Z,7.78
2022-09-22T18:52:10.449Z,7.38
2022-09-22T18:54:43.836Z,6.80
2022-09-22T18:57:12.194Z,6.93
2022-09-22T18:59:40.012Z,6.95
2022-09-22T19:02:11.424Z,8.15
2022-09-22T19:04:40.890Z,7.82
2022-09-22T19:07:25.841Z,7.50
2022-09-22T19:09:53.352Z,8.07
2022-09-22T19:12:21.586Z,8.35
2022-09-22T19:14:54.401Z,11.50
2022-09-22T19:17:24.307Z,10.23
2022-09-22T19:19:53.031Z,9.35
2022-09-22T19:22:22.147Z,6.80
2022-09-22T19:24:50.731Z,9.68
2022-09-22T19:27:19.033Z,7.97
2022-09-22T19:29:46.382Z,7.28
2022-09-22T19:32:13.780Z,7.18
2022-09-22T19:34:41.177Z,9.68
2022-09-22T19:37:09.874Z,7.70
2022-09-22T19:39:37.246Z,7.57
2022-09-22T19:42:04.814Z,7.85
2022-09-22T19:44:32.426Z,8.25
2022-09-22T19:46:59.789Z,9.27
2022-09-22T19:49:27.341Z,6.40
2022-09-22T19:51:54.732Z,8.07
2022-09-22T19:54:23.510Z,8.90
2022-09-22T19:56:51.049Z,7.10
2022-09-22T19:59:19.735Z,11.15
2022-09-22T20:01:47.896Z,8.35
2022-09-22T20:04:17.259Z,8.60
2022-09-22T20:06:44.677Z,7.35
2022-09-22T20:09:12.395Z,10.02
2022-09-22T20:11:41.846Z,9.55
2022-09-22T20:14:23.638Z,14.00
2022-09-22T20:16:51.716Z,9.07
2022-09-22T20:19:19.374Z,7.82
2022-09-22T20:21:47.380Z,9.95
2022-09-22T20:24:16.308Z,9.98
2022-09-22T20:26:45.995Z,10.13
2022-09-22T20:29:13.989Z,7.55
2022-09-22T20:31:41.637Z,10.27
2022-09-22T20:34:11.446Z,12.48
2022-09-22T20:36:38.936Z,10.73
2022-09-22T20:39:06.807Z,10.27
2022-09-22T20:41:34.317Z,10.30
2022-09-22T20:44:03.580Z,12.77
2022-09-22T20:46:31.093Z,12.75
2022-09-22T20:48:58.907Z,10.95
2022-09-22T20:51:26.470Z,12.30
2022-09-22T20:53:54.558Z,11.82
2022-09-22T20:56:22.268Z,9.18
2022-09-22T20:58:49.734Z,11.57
2022-09-22T21:01:18.863Z,9.07
2022-09-22T21:03:46.434Z,9.18
2022-09-22T21:06:15.685Z,10.52
2022-09-22T21:09:01.398Z,11.90
2022-09-22T21:11:29.097Z,10.70
2022-09-22T21:14:01.381Z,8.65
2022-09-22T21:16:30.253Z,13.45
2022-09-22T21:18:59.750Z,10.65
2022-09-22T21:21:28.199Z,11.73
2022-09-22T21:23:56.135Z,11.18
2022-09-22T21:26:23.790Z,12.30
2022-09-22T21:28:52.141Z,11.25
2022-09-22T21:31:21.125Z,12.48
2022-09-22T21:33:50.262Z,14.20
2022-09-22T21:36:18.618Z,9.98
2022-09-22T21:38:46.880Z,11.02
2022-09-22T21:41:15.734Z,12.43
2022-09-22T21:43:44.292Z,11.95
2022-09-22T21:46:12.819Z,10.45
2022-09-22T21:48:40.487Z,11.15
2022-09-22T21:51:10.483Z,10.13
2022-09-22T21:53:39.342Z,12.32
2022-09-22T21:56:07.374Z,12.75
2022-09-22T21:58:35.953Z,12.40
2022-09-22T22:01:06.065Z,10.88
2022-09-22T22:03:34.125Z,11.18
2022-09-22T22:06:02.341Z,13.75
2022-09-22T22:08:36.309Z,11.35
2022-09-22T22:11:06.927Z,11.38
2022-09-22T22:13:35.126Z,12.68
2022-09-22T22:16:02.865Z,10.73
2022-09-22T22:18:30.652Z,11.82
2022-09-22T22:20:59.040Z,11.88
2022-09-22T22:23:28.732Z,10.30
2022-09-22T22:25:58.944Z,10.50
2022-09-22T22:28:26.630Z,12.32
2022-09-22T22:30:54.023Z,11.35
2022-09-22T22:33:21.795Z,11.88
2022-09-22T22:35:53.323Z,14.18
2022-09-22T22:38:21.190Z,11.90
2022-09-22T22:40:48.631Z,11.63
2022-09-22T22:43:18.347Z,13.10
2022-09-22T22:45:46.144Z,10.55
2022-09-22T22:48:15.107Z,11.55
2022-09-22T22:50:43.249Z,10.48
2022-09-22T22:53:12.230Z,9.57
2022-09-22T22:55:40.410Z,15.15
2022-09-22T22:58:07.785Z,11.98
2022-09-22T23:00:36.849Z,11.40
2022-09-22T23:03:04.211Z,10.57
2022-09-22T23:05:31.630Z,9.75
2022-09-22T23:07:59.050Z,13.48
2022-09-22T23:10:26.889Z,10.05
2022-09-22T23:12:56.339Z,10.90
2022-09-22T23:15:24.360Z,10.30
2022-09-22T23:17:53.020Z,11.18
2022-09-22T23:20:20.413Z,12.00
2022-09-22T23:22:49.043Z,10.98
2022-09-22T23:25:16.771Z,10.32
2022-09-22T23:27:48.252Z,9.30
2022-09-22T23:30:16.430Z,9.23
2022-09-22T23:32:43.926Z,10.27
2022-09-22T23:35:12.790Z,12.25
2022-09-22T23:37:40.140Z,9.85
2022-09-22T23:40:08.223Z,11.82
2022-09-22T23:42:35.591Z,8.55
2022-09-22T23:45:03.702Z,11.90
2022-09-22T23:47:32.863Z,8.80
2022-09-22T23:50:00.282Z,11.32
2022-09-22T23:52:29.018Z,10.85
2022-09-22T23:54:56.366Z,8.43
2022-09-22T23:57:23.720Z,9.48
2022-09-22T23:59:51.099Z,9.85
